sensor_id;sensor_type;location;lat;lon;timestamp;pressure;altitude;pressure_sealevel;temperature;humidity
11605;BME280;5858;43.076;25.626;2023-08-01T00:00:48;98794.50;;;20.73;100.00
11605;BME280;5858;43.076;25.626;2023-08-01T00:03:15;98742.38;;;20.39;100.00
11605;BME280;5858;43.076;25.626;2023-08-01T00:05:44;98799.22;;;20.83;100.00
11605;BME280;5858;43.076;25.626;2023-08-01T00:08:11;98651.25;;;19.95;100.00
11605;BME280;5858;43.076;25.626;2023-08-01T00:10:38;98807.44;;;20.93;100.00
11605;BME280;5858;43.076;25.626;2023-08-01T00:13:05;98758.84;;;20.70;100.00
11605;BME280;5858;43.076;25.626;2023-08-01T00:15:32;98670.50;;;19.88;100.00
11605;BME280;5858;43.076;25.626;2023-08-01T00:17:59;98753.16;;;20.34;100.00
11605;BME280;5858;43.076;25.626;2023-08-01T00:20:26;98818.56;;;20.92;100.00
11605;BME280;5858;43.076;25.626;2023-08-01T00:22:55;98818.84;;;20.95;100.00
11605;BME280;5858;43.076;25.626;2023-08-01T00:25:22;98813.75;;;21.09;100.00
11605;BME280;5858;43.076;25.626;2023-08-01T00:27:49;98675.31;;;20.18;100.00
11605;BME280;5858;43.076;25.626;2023-08-01T00:30:16;98808.03;;;21.05;100.00
11605;BME280;5858;43.076;25.626;2023-08-01T00:32:43;98780.94;;;20.79;100.00
11605;BME280;5858;43.076;25.626;2023-08-01T00:35:10;98777.84;;;20.60;100.00
11605;BME280;5858;43.076;25.626;2023-08-01T00:37:37;98821.31;;;20.97;100.00
11605;BME280;5858;43.076;25.626;2023-08-01T00:40:08;98791.53;;;20.80;100.00
11605;BME280;5858;43.076;25.626;2023-08-01T00:42:36;98775.84;;;20.45;100.00
11605;BME280;5858;43.076;25.626;2023-08-01T00:45:04;98822.28;;;20.81;100.00
11605;BME280;5858;43.076;25.626;2023-08-01T00:47:31;98647.78;;;19.67;100.00
11605;BME280;5858;43.076;25.626;2023-08-01T00:49:58;98704.34;;;20.12;100.00
11605;BME280;5858;43.076;25.626;2023-08-01T00:52:25;98737.09;;;20.33;100.00
11605;BME280;5858;43.076;25.626;2023-08-01T00:54:53;98755.50;;;20.53;100.00
11605;BME280;5858;43.076;25.626;2023-08-01T00:57:21;98763.22;;;20.71;100.00
11605;BME280;5858;43.076;25.626;2023-08-01T00:59:48;98669.06;;;20.18;100.00
11605;BME280;5858;43.076;25.626;2023-08-01T01:02:15;98768.59;;;20.61;100.00
11605;BME280;5858;43.076;25.626;2023-08-01T01:04:42;98741.91;;;20.53;100.00
11605;BME280;5858;43.076;25.626;2023-08-01T01:07:09;98798.34;;;20.78;100.00
11605;BME280;5858;43.076;25.626;2023-08-01T01:09:36;98737.56;;;20.52;100.00
11605;BME280;5858;43.076;25.626;2023-08-01T01:12:03;98806.91;;;20.96;100.00
11605;BME280;5858;43.076;25.626;2023-08-01T01:14:32;98800.88;;;20.89;100.00
11605;BME280;5858;43.076;25.626;2023-08-01T01:16:59;98631.34;;;19.84;100.00
11605;BME280;5858;43.076;25.626;2023-08-01T01:19:28;98745.25;;;20.33;100.00
11605;BME280;5858;43.076;25.626;2023-08-01T01:21:57;98641.13;;;19.85;100.00
11605;BME280;5858;43.076;25.626;2023-08-01T01:24:26;98776.28;;;20.74;100.00
11605;BME280;5858;43.076;25.626;2023-08-01T01:26:54;98712.09;;;20.31;100.00
11605;BME280;5858;43.076;25.626;2023-08-01T01:29:23;98713.53;;;20.38;100.00
11605;BME280;5858;43.076;25.626;2023-08-01T01:31:50;98730.09;;;20.37;100.00
11605;BME280;5858;43.076;25.626;2023-08-01T01:34:17;98750.59;;;20.23;100.00
11605;BME280;5858;43.076;25.626;2023-08-01T01:36:44;98685.75;;;19.94;100.00
11605;BME280;5858;43.076;25.626;2023-08-01T01:39:13;98709.25;;;20.16;100.00
11605;BME280;5858;43.076;25.626;2023-08-01T01:41:39;98689.03;;;19.96;100.00
11605;BME280;5858;43.076;25.626;2023-08-01T01:44:06;98783.53;;;20.58;100.00
11605;BME280;5858;43.076;25.626;2023-08-01T01:46:33;98673.78;;;19.90;100.00
11605;BME280;5858;43.076;25.626;2023-08-01T01:49:00;98728.81;;;20.12;100.00
11605;BME280;5858;43.076;25.626;2023-08-01T01:51:28;98789.75;;;20.54;100.00
11605;BME280;5858;43.076;25.626;2023-08-01T01:53:55;98709.81;;;20.18;100.00
11605;BME280;5858;43.076;25.626;2023-08-01T01:56:23;98750.59;;;20.50;100.00
11605;BME280;5858;43.076;25.626;2023-08-01T01:58:50;98617.41;;;19.70;100.00
11605;BME280;5858;43.076;25.626;2023-08-01T02:01:19;98739.25;;;20.31;100.00
11605;BME280;5858;43.076;25.626;2023-08-01T02:03:46;98726.91;;;20.13;100.00
11605;BME280;5858;43.076;25.626;2023-08-01T02:06:13;98719.25;;;20.05;100.00
11605;BME280;5858;43.076;25.626;2023-08-01T02:08:40;98658.63;;;19.67;100.00
11605;BME280;5858;43.076;25.626;2023-08-01T02:11:07;98686.69;;;19.78;100.00
11605;BME280;5858;43.076;25.626;2023-08-01T02:13:35;98731.75;;;20.06;100.00
11605;BME280;5858;43.076;25.626;2023-08-01T02:16:02;98688.28;;;19.74;100.00
11605;BME280;5858;43.076;25.626;2023-08-01T02:18:29;98700.44;;;19.66;100.00
11605;BME280;5858;43.076;25.626;2023-08-01T02:20:56;98769.00;;;19.84;100.00
11605;BME280;5858;43.076;25.626;2023-08-01T02:23:23;98752.31;;;19.97;100.00
11605;BME280;5858;43.076;25.626;2023-08-01T02:25:49;98689.31;;;19.68;100.00
11605;BME280;5858;43.076;25.626;2023-08-01T02:28:16;98748.16;;;19.89;100.00
11605;BME280;5858;43.076;25.626;2023-08-01T02:30:45;98599.22;;;19.12;100.00
11605;BME280;5858;43.076;25.626;2023-08-01T02:33:12;98712.22;;;19.82;100.00
11605;BME280;5858;43.076;25.626;2023-08-01T02:35:39;98767.44;;;19.88;100.00
11605;BME280;5858;43.076;25.626;2023-08-01T02:38:06;98781.97;;;20.35;100.00
11605;BME280;5858;43.076;25.626;2023-08-01T02:40:33;98667.66;;;19.46;100.00
11605;BME280;5858;43.076;25.626;2023-08-01T02:43:00;98626.25;;;19.34;100.00
11605;BME280;5858;43.076;25.626;2023-08-01T02:45:26;98639.88;;;19.39;100.00
11605;BME280;5858;43.076;25.626;2023-08-01T02:47:55;98689.88;;;19.70;100.00
11605;BME280;5858;43.076;25.626;2023-08-01T02:50:22;98690.81;;;19.86;100.00
11605;BME280;5858;43.076;25.626;2023-08-01T02:52:48;98640.03;;;19.27;100.00
11605;BME280;5858;43.076;25.626;2023-08-01T02:55:16;98768.91;;;20.00;100.00
11605;BME280;5858;43.076;25.626;2023-08-01T02:57:43;98774.59;;;19.99;100.00
11605;BME280;5858;43.076;25.626;2023-08-01T03:00:13;98704.47;;;19.64;100.00
11605;BME280;5858;43.076;25.626;2023-08-01T03:02:43;98698.25;;;19.41;100.00
11605;BME280;5858;43.076;25.626;2023-08-01T03:05:11;98756.97;;;19.74;100.00
11605;BME280;5858;43.076;25.626;2023-08-01T03:07:38;98714.09;;;19.49;100.00
11605;BME280;5858;43.076;25.626;2023-08-01T03:10:05;98760.91;;;19.62;100.00
11605;BME280;5858;43.076;25.626;2023-08-01T03:12:33;98716.34;;;19.58;100.00
11605;BME280;5858;43.076;25.626;2023-08-01T03:15:02;98776.88;;;19.85;100.00
11605;BME280;5858;43.076;25.626;2023-08-01T03:17:29;98734.84;;;19.39;100.00
11605;BME280;5858;43.076;25.626;2023-08-01T03:19:56;98732.13;;;19.61;100.00
11605;BME280;5858;43.076;25.626;2023-08-01T03:22:24;98778.34;;;19.93;100.00
11605;BME280;5858;43.076;25.626;2023-08-01T03:24:51;98781.44;;;20.06;100.00
11605;BME280;5858;43.076;25.626;2023-08-01T03:27:18;98730.53;;;19.65;100.00
11605;BME280;5858;43.076;25.626;2023-08-01T03:29:45;98639.66;;;18.92;100.00
11605;BME280;5858;43.076;25.626;2023-08-01T03:32:12;98676.06;;;19.23;100.00
11605;BME280;5858;43.076;25.626;2023-08-01T03:34:39;98659.59;;;19.29;100.00
11605;BME280;5858;43.076;25.626;2023-08-01T03:37:06;98729.16;;;19.89;100.00
11605;BME280;5858;43.076;25.626;2023-08-01T03:39:38;98756.41;;;19.99;100.00
11605;BME280;5858;43.076;25.626;2023-08-01T03:42:05;98828.53;;;20.44;100.00
11605;BME280;5858;43.076;25.626;2023-08-01T03:44:31;98754.09;;;20.18;100.00
11605;BME280;5858;43.076;25.626;2023-08-01T03:46:58;98778.28;;;20.47;100.00
11605;BME280;5858;43.076;25.626;2023-08-01T03:49:25;98817.06;;;20.74;100.00
11605;BME280;5858;43.076;25.626;2023-08-01T03:51:52;98755.19;;;20.49;100.00
11605;BME280;5858;43.076;25.626;2023-08-01T03:54:20;98805.72;;;20.82;100.00
11605;BME280;5858;43.076;25.626;2023-08-01T03:56:48;98790.00;;;20.89;100.00
11605;BME280;5858;43.076;25.626;2023-08-01T03:59:15;98804.88;;;21.24;100.00
11605;BME280;5858;43.076;25.626;2023-08-01T04:01:42;98778.31;;;20.89;100.00
11605;BME280;5858;43.076;25.626;2023-08-01T04:04:10;98685.44;;;20.65;100.00
11605;BME280;5858;43.076;25.626;2023-08-01T04:06:37;98826.09;;;21.89;100.00
11605;BME280;5858;43.076;25.626;2023-08-01T04:09:04;98824.84;;;22.33;97.95
11605;BME280;5858;43.076;25.626;2023-08-01T04:11:32;98794.81;;;22.78;94.11
11605;BME280;5858;43.076;25.626;2023-08-01T04:14:00;98801.78;;;23.35;90.10
11605;BME280;5858;43.076;25.626;2023-08-01T04:16:27;98828.91;;;23.86;86.42
11605;BME280;5858;43.076;25.626;2023-08-01T04:18:54;98750.59;;;23.66;84.68
11605;BME280;5858;43.076;25.626;2023-08-01T04:21:21;98782.25;;;23.72;85.61
11605;BME280;5858;43.076;25.626;2023-08-01T04:23:48;98821.31;;;24.22;85.30
11605;BME280;5858;43.076;25.626;2023-08-01T04:26:15;98824.06;;;24.12;82.62
11605;BME280;5858;43.076;25.626;2023-08-01T04:28:42;98744.72;;;23.34;83.94
11605;BME280;5858;43.076;25.626;2023-08-01T04:31:12;98757.72;;;23.62;83.33
11605;BME280;5858;43.076;25.626;2023-08-01T04:33:39;98801.19;;;24.03;81.86
11605;BME280;5858;43.076;25.626;2023-08-01T04:36:06;98821.09;;;24.13;81.77
11605;BME280;5858;43.076;25.626;2023-08-01T04:38:33;98822.72;;;24.09;79.34
11605;BME280;5858;43.076;25.626;2023-08-01T04:41:00;98748.91;;;23.75;78.26
11605;BME280;5858;43.076;25.626;2023-08-01T04:43:28;98717.47;;;23.78;78.49
11605;BME280;5858;43.076;25.626;2023-08-01T04:45:55;98834.13;;;24.66;77.26
11605;BME280;5858;43.076;25.626;2023-08-01T04:48:26;98871.34;;;25.49;76.94
11605;BME280;5858;43.076;25.626;2023-08-01T04:50:53;98797.19;;;25.64;72.73
11605;BME280;5858;43.076;25.626;2023-08-01T04:53:27;98846.66;;;25.96;71.02
11605;BME280;5858;43.076;25.626;2023-08-01T04:55:56;98724.50;;;25.05;72.19
11605;BME280;5858;43.076;25.626;2023-08-01T04:58:28;98755.13;;;25.12;72.17
11605;BME280;5858;43.076;25.626;2023-08-01T05:00:56;98864.72;;;25.55;73.34
11605;BME280;5858;43.076;25.626;2023-08-01T05:03:23;98802.47;;;24.84;71.68
11605;BME280;5858;43.076;25.626;2023-08-01T05:06:02;98740.41;;;24.16;72.51
11605;BME280;5858;43.076;25.626;2023-08-01T05:08:33;98725.25;;;23.55;75.08
11605;BME280;5858;43.076;25.626;2023-08-01T05:11:18;98788.41;;;23.93;79.10
11605;BME280;5858;43.076;25.626;2023-08-01T05:16:58;98892.25;;;25.16;77.33
11605;BME280;5858;43.076;25.626;2023-08-01T05:19:28;98734.41;;;24.48;75.92
11605;BME280;5858;43.076;25.626;2023-08-01T05:21:59;98877.22;;;25.66;73.58
11605;BME280;5858;43.076;25.626;2023-08-01T05:24:32;98796.78;;;25.52;71.84
11605;BME280;5858;43.076;25.626;2023-08-01T05:27:40;98801.69;;;25.97;68.13
11605;BME280;5858;43.076;25.626;2023-08-01T05:30:28;98754.28;;;26.29;66.47
11605;BME280;5858;43.076;25.626;2023-08-01T05:33:16;98832.94;;;27.04;58.94
11605;BME280;5858;43.076;25.626;2023-08-01T05:37:16;98877.03;;;27.81;57.92
11605;BME280;5858;43.076;25.626;2023-08-01T05:39:33;98887.63;;;28.02;53.43
11605;BME280;5858;43.076;25.626;2023-08-01T05:42:22;98855.44;;;27.75;52.77
11605;BME280;5858;43.076;25.626;2023-08-01T05:45:03;98887.06;;;28.41;54.66
11605;BME280;5858;43.076;25.626;2023-08-01T05:47:34;98855.59;;;28.56;53.67
11605;BME280;5858;43.076;25.626;2023-08-01T05:50:02;98859.78;;;28.98;52.00
11605;BME280;5858;43.076;25.626;2023-08-01T05:52:30;98870.22;;;29.40;49.70
11605;BME280;5858;43.076;25.626;2023-08-01T05:54:58;98853.69;;;29.80;50.38
11605;BME280;5858;43.076;25.626;2023-08-01T05:57:25;98802.19;;;29.27;48.15
11605;BME280;5858;43.076;25.626;2023-08-01T05:59:58;98789.28;;;28.97;46.19
11605;BME280;5858;43.076;25.626;2023-08-01T06:02:26;98850.97;;;29.18;47.33
11605;BME280;5858;43.076;25.626;2023-08-01T06:04:54;98783.53;;;29.15;47.14
11605;BME280;5858;43.076;25.626;2023-08-01T06:07:39;98789.94;;;29.42;46.38
11605;BME280;5858;43.076;25.626;2023-08-01T06:10:35;98859.44;;;30.44;46.68
11605;BME280;5858;43.076;25.626;2023-08-01T06:13:05;98745.72;;;29.56;42.44
11605;BME280;5858;43.076;25.626;2023-08-01T06:15:35;98883.94;;;30.97;45.08
11605;BME280;5858;43.076;25.626;2023-08-01T06:18:26;98884.34;;;31.43;42.43
11605;BME280;5858;43.076;25.626;2023-08-01T06:21:24;98782.19;;;31.38;42.67
11605;BME280;5858;43.076;25.626;2023-08-01T06:23:57;98721.75;;;31.27;41.76
11605;BME280;5858;43.076;25.626;2023-08-01T06:36:30;98744.78;;;31.90;38.82
11605;BME280;5858;43.076;25.626;2023-08-01T06:44:27;98834.75;;;31.67;35.69
11605;BME280;5858;43.076;25.626;2023-08-01T06:46:55;98705.53;;;30.79;36.43
11605;BME280;5858;43.076;25.626;2023-08-01T06:49:24;98732.13;;;30.92;38.27
11605;BME280;5858;43.076;25.626;2023-08-01T06:59:10;98660.03;;;28.38;40.08
11605;BME280;5858;43.076;25.626;2023-08-01T07:01:38;98801.44;;;28.96;41.68
11605;BME280;5858;43.076;25.626;2023-08-01T07:04:11;98667.00;;;27.91;41.82
11605;BME280;5858;43.076;25.626;2023-08-01T07:07:02;98865.25;;;28.89;41.17
11605;BME280;5858;43.076;25.626;2023-08-01T07:09:32;98673.47;;;27.73;42.25
11605;BME280;5858;43.076;25.626;2023-08-01T07:12:05;98757.84;;;28.22;42.02
11605;BME280;5858;43.076;25.626;2023-08-01T07:14:35;98643.91;;;27.20;42.67
11605;BME280;5858;43.076;25.626;2023-08-01T07:17:13;98665.75;;;27.25;43.61
11605;BME280;5858;43.076;25.626;2023-08-01T07:19:50;98698.59;;;27.30;42.86
11605;BME280;5858;43.076;25.626;2023-08-01T07:22:43;98728.41;;;27.50;41.85
11605;BME280;5858;43.076;25.626;2023-08-01T07:25:24;98764.84;;;27.70;42.86
11605;BME280;5858;43.076;25.626;2023-08-01T07:28:20;98731.69;;;27.25;44.03
11605;BME280;5858;43.076;25.626;2023-08-01T07:34:33;98676.97;;;27.15;45.24
11605;BME280;5858;43.076;25.626;2023-08-01T07:37:14;98721.72;;;27.79;42.97
11605;BME280;5858;43.076;25.626;2023-08-01T08:01:31;98750.28;;;28.50;43.21
11605;BME280;5858;43.076;25.626;2023-08-01T08:04:50;98668.47;;;27.75;41.94
11605;BME280;5858;43.076;25.626;2023-08-01T08:11:04;98771.59;;;28.89;43.43
11605;BME280;5858;43.076;25.626;2023-08-01T08:13:34;98844.41;;;29.36;39.65
11605;BME280;5858;43.076;25.626;2023-08-01T08:19:09;98785.00;;;29.22;43.23
11605;BME280;5858;43.076;25.626;2023-08-01T08:42:37;98767.72;;;29.38;38.95
11605;BME280;5858;43.076;25.626;2023-08-01T08:52:32;98649.13;;;28.64;38.25
11605;BME280;5858;43.076;25.626;2023-08-01T08:55:06;98724.53;;;29.17;37.53
11605;BME280;5858;43.076;25.626;2023-08-01T08:57:36;98683.38;;;28.80;36.29
11605;BME280;5858;43.076;25.626;2023-08-01T09:00:34;98799.41;;;29.50;35.71
11605;BME280;5858;43.076;25.626;2023-08-01T09:06:40;98732.09;;;29.51;39.71
11605;BME280;5858;43.076;25.626;2023-08-01T09:12:00;98646.31;;;29.43;35.50
11605;BME280;5858;43.076;25.626;2023-08-01T09:14:53;98781.66;;;30.25;34.97
11605;BME280;5858;43.076;25.626;2023-08-01T09:17:28;98638.63;;;29.23;35.18
11605;BME280;5858;43.076;25.626;2023-08-01T09:20:26;98798.53;;;30.23;35.98
11605;BME280;5858;43.076;25.626;2023-08-01T09:23:08;98676.63;;;29.61;35.71
11605;BME280;5858;43.076;25.626;2023-08-01T09:25:52;98764.41;;;30.45;36.58
11605;BME280;5858;43.076;25.626;2023-08-01T09:28:24;98779.81;;;30.72;36.54
11605;BME280;5858;43.076;25.626;2023-08-01T09:34:42;98620.59;;;30.21;35.77
11605;BME280;5858;43.076;25.626;2023-08-01T09:37:15;98641.25;;;29.97;34.74
11605;BME280;5858;43.076;25.626;2023-08-01T09:39:53;98611.22;;;29.96;34.64
11605;BME280;5858;43.076;25.626;2023-08-01T09:42:46;98601.31;;;29.95;36.18
11605;BME280;5858;43.076;25.626;2023-08-01T09:45:54;98770.34;;;30.90;36.42
11605;BME280;5858;43.076;25.626;2023-08-01T09:48:40;98631.19;;;29.93;34.74
11605;BME280;5858;43.076;25.626;2023-08-01T09:51:09;98688.94;;;30.24;34.79
11605;BME280;5858;43.076;25.626;2023-08-01T09:53:47;98616.41;;;29.97;36.36
11605;BME280;5858;43.076;25.626;2023-08-01T09:56:23;98595.16;;;29.98;36.98
11605;BME280;5858;43.076;25.626;2023-08-01T09:58:54;98591.91;;;29.96;36.52
11605;BME280;5858;43.076;25.626;2023-08-01T10:02:12;98731.63;;;30.99;34.87
11605;BME280;5858;43.076;25.626;2023-08-01T10:05:13;98735.22;;;30.91;36.95
11605;BME280;5858;43.076;25.626;2023-08-01T10:08:07;98592.75;;;29.70;35.77
11605;BME280;5858;43.076;25.626;2023-08-01T10:11:07;98735.97;;;30.53;34.54
11605;BME280;5858;43.076;25.626;2023-08-01T10:13:51;98630.88;;;29.77;35.09
11605;BME280;5858;43.076;25.626;2023-08-01T10:26:16;98734.56;;;31.32;37.32
11605;BME280;5858;43.076;25.626;2023-08-01T10:29:34;98619.84;;;30.88;34.42
11605;BME280;5858;43.076;25.626;2023-08-01T10:32:16;98642.59;;;31.14;35.13
11605;BME280;5858;43.076;25.626;2023-08-01T10:35:09;98546.78;;;30.77;36.04
11605;BME280;5858;43.076;25.626;2023-08-01T10:37:41;98697.41;;;31.62;33.89
11605;BME280;5858;43.076;25.626;2023-08-01T10:44:18;98558.13;;;31.05;33.91
11605;BME280;5858;43.076;25.626;2023-08-01T10:47:30;98624.13;;;31.69;33.73
11605;BME280;5858;43.076;25.626;2023-08-01T10:50:23;98504.59;;;31.09;32.56
11605;BME280;5858;43.076;25.626;2023-08-01T10:53:05;98519.16;;;31.18;33.07
11605;BME280;5858;43.076;25.626;2023-08-01T10:55:46;98509.09;;;31.22;33.66
11605;BME280;5858;43.076;25.626;2023-08-01T10:58:32;98508.09;;;31.39;34.07
11605;BME280;5858;43.076;25.626;2023-08-01T11:01:14;98558.75;;;31.85;33.75
11605;BME280;5858;43.076;25.626;2023-08-01T11:03:58;98638.72;;;32.32;34.36
11605;BME280;5858;43.076;25.626;2023-08-01T11:07:16;98518.88;;;31.65;33.78
11605;BME280;5858;43.076;25.626;2023-08-01T11:10:18;98576.66;;;32.00;33.21
11605;BME280;5858;43.076;25.626;2023-08-01T11:12:59;98486.75;;;31.27;34.06
11605;BME280;5858;43.076;25.626;2023-08-01T11:25:39;98534.22;;;31.62;32.38
11605;BME280;5858;43.076;25.626;2023-08-01T11:32:18;98476.56;;;31.19;33.96
11605;BME280;5858;43.076;25.626;2023-08-01T11:38:22;98599.34;;;31.81;33.01
11605;BME280;5858;43.076;25.626;2023-08-01T11:41:03;98521.50;;;31.49;34.25
11605;BME280;5858;43.076;25.626;2023-08-01T11:44:00;98427.50;;;30.95;33.25
11605;BME280;5858;43.076;25.626;2023-08-01T11:50:48;98462.84;;;31.56;33.26
11605;BME280;5858;43.076;25.626;2023-08-01T11:54:07;98466.19;;;31.94;32.55
11605;BME280;5858;43.076;25.626;2023-08-01T11:56:43;98463.31;;;31.58;32.84
11605;BME280;5858;43.076;25.626;2023-08-01T11:59:30;98441.50;;;31.32;35.02
11605;BME280;5858;43.076;25.626;2023-08-01T12:02:00;98428.25;;;31.38;31.43
11605;BME280;5858;43.076;25.626;2023-08-01T12:05:23;98437.66;;;31.70;33.25
11605;BME280;5858;43.076;25.626;2023-08-01T12:08:27;98577.91;;;32.96;33.59
11605;BME280;5858;43.076;25.626;2023-08-01T12:11:04;98526.41;;;32.59;32.15
11605;BME280;5858;43.076;25.626;2023-08-01T12:13:46;98444.63;;;31.88;32.83
11605;BME280;5858;43.076;25.626;2023-08-01T12:16:16;98449.56;;;31.94;32.26
11605;BME280;5858;43.076;25.626;2023-08-01T12:18:47;98567.28;;;32.62;32.68
11605;BME280;5858;43.076;25.626;2023-08-01T12:21:19;98472.16;;;31.84;32.25
11605;BME280;5858;43.076;25.626;2023-08-01T12:24:02;98457.75;;;31.91;31.25
11605;BME280;5858;43.076;25.626;2023-08-01T12:26:39;98401.53;;;31.54;31.21
11605;BME280;5858;43.076;25.626;2023-08-01T12:29:12;98563.72;;;32.49;30.74
11605;BME280;5858;43.076;25.626;2023-08-01T12:31:39;98568.34;;;32.69;31.31
11605;BME280;5858;43.076;25.626;2023-08-01T12:34:06;98528.94;;;32.64;30.96
11605;BME280;5858;43.076;25.626;2023-08-01T12:36:33;98407.81;;;32.12;30.20
11605;BME280;5858;43.076;25.626;2023-08-01T12:39:01;98411.19;;;32.30;29.69
11605;BME280;5858;43.076;25.626;2023-08-01T12:41:28;98502.66;;;33.10;30.59
11605;BME280;5858;43.076;25.626;2023-08-01T12:44:00;98397.31;;;32.42;30.25
11605;BME280;5858;43.076;25.626;2023-08-01T12:46:28;98519.66;;;33.08;30.60
11605;BME280;5858;43.076;25.626;2023-08-01T12:49:00;98505.16;;;33.27;30.52
11605;BME280;5858;43.076;25.626;2023-08-01T12:51:28;98460.38;;;33.13;31.87
11605;BME280;5858;43.076;25.626;2023-08-01T12:53:57;98438.34;;;33.04;28.84
11605;BME280;5858;43.076;25.626;2023-08-01T12:56:41;98358.38;;;32.50;29.95
11605;BME280;5858;43.076;25.626;2023-08-01T12:59:11;98530.38;;;33.78;29.88
11605;BME280;5858;43.076;25.626;2023-08-01T13:01:40;98489.75;;;33.58;29.87
11605;BME280;5858;43.076;25.626;2023-08-01T13:17:34;98511.19;;;33.73;30.03
11605;BME280;5858;43.076;25.626;2023-08-01T13:20:13;98492.41;;;33.66;29.23
11605;BME280;5858;43.076;25.626;2023-08-01T13:26:16;98527.91;;;33.89;29.84
11605;BME280;5858;43.076;25.626;2023-08-01T13:32:32;98497.50;;;33.80;29.34
11605;BME280;5858;43.076;25.626;2023-08-01T13:35:48;98500.75;;;33.82;28.84
11605;BME280;5858;43.076;25.626;2023-08-01T13:42:37;98494.03;;;33.39;29.14
11605;BME280;5858;43.076;25.626;2023-08-01T13:45:42;98407.91;;;32.92;30.84
11605;BME280;5858;43.076;25.626;2023-08-01T13:51:30;98336.06;;;32.07;29.66
11605;BME280;5858;43.076;25.626;2023-08-01T14:02:35;98419.78;;;32.16;30.86
11605;BME280;5858;43.076;25.626;2023-08-01T14:39:34;98411.47;;;32.93;31.22
11605;BME280;5858;43.076;25.626;2023-08-01T14:45:29;98306.56;;;32.51;30.73
11605;BME280;5858;43.076;25.626;2023-08-01T14:48:20;98261.09;;;32.12;31.82
11605;BME280;5858;43.076;25.626;2023-08-01T14:51:10;98273.22;;;32.07;31.53
11605;BME280;5858;43.076;25.626;2023-08-01T14:53:49;98302.19;;;31.98;32.70
11605;BME280;5858;43.076;25.626;2023-08-01T15:02:47;98373.91;;;32.27;33.35
11605;BME280;5858;43.076;25.626;2023-08-01T16:06:27;98325.94;;;30.59;36.60
11605;BME280;5858;43.076;25.626;2023-08-01T16:08:59;98272.22;;;30.36;36.83
11605;BME280;5858;43.076;25.626;2023-08-01T16:14:24;98389.41;;;31.01;37.08
11605;BME280;5858;43.076;25.626;2023-08-01T16:16:52;98244.72;;;30.06;37.48
11605;BME280;5858;43.076;25.626;2023-08-01T16:19:48;98261.25;;;30.06;37.17
11605;BME280;5858;43.076;25.626;2023-08-01T16:22:44;98280.38;;;30.12;37.07
11605;BME280;5858;43.076;25.626;2023-08-01T16:25:43;98336.91;;;30.47;37.56
11605;BME280;5858;43.076;25.626;2023-08-01T16:28:59;98322.16;;;30.43;37.62
11605;BME280;5858;43.076;25.626;2023-08-01T16:49:05;98385.31;;;30.24;38.88
11605;BME280;5858;43.076;25.626;2023-08-01T16:51:47;98378.66;;;30.25;38.57
11605;BME280;5858;43.076;25.626;2023-08-01T16:54:31;98398.94;;;30.29;38.54
11605;BME280;5858;43.076;25.626;2023-08-01T16:57:46;98316.75;;;29.84;39.02
11605;BME280;5858;43.076;25.626;2023-08-01T17:00:31;98383.22;;;30.21;39.12
11605;BME280;5858;43.076;25.626;2023-08-01T17:03:07;98300.88;;;29.52;39.82
11605;BME280;5858;43.076;25.626;2023-08-01T17:06:12;98282.16;;;29.19;40.46
11605;BME280;5858;43.076;25.626;2023-08-01T17:08:51;98299.63;;;29.32;40.17
11605;BME280;5858;43.076;25.626;2023-08-01T17:11:58;98271.66;;;29.12;39.80
11605;BME280;5858;43.076;25.626;2023-08-01T17:14:45;98344.97;;;29.52;40.39
11605;BME280;5858;43.076;25.626;2023-08-01T17:17:25;98371.31;;;29.70;40.38
11605;BME280;5858;43.076;25.626;2023-08-01T17:19:52;98356.16;;;29.55;41.27
11605;BME280;5858;43.076;25.626;2023-08-01T17:22:22;98313.47;;;29.14;41.65
11605;BME280;5858;43.076;25.626;2023-08-01T17:24:52;98448.50;;;29.78;42.52
11605;BME280;5858;43.076;25.626;2023-08-01T17:27:19;98412.38;;;29.63;42.63
11605;BME280;5858;43.076;25.626;2023-08-01T17:29:46;98330.72;;;28.94;42.69
11605;BME280;5858;43.076;25.626;2023-08-01T17:32:22;98429.94;;;29.58;42.58
11605;BME280;5858;43.076;25.626;2023-08-01T17:55:08;98287.63;;;27.77;45.42
11605;BME280;5858;43.076;25.626;2023-08-01T17:57:43;98304.13;;;27.77;46.14
11605;BME280;5858;43.076;25.626;2023-08-01T19:46:54;98364.00;;;25.33;63.62
11605;BME280;5858;43.076;25.626;2023-08-01T19:49:23;98496.44;;;26.29;64.85
11605;BME280;5858;43.076;25.626;2023-08-01T19:51:52;98508.31;;;26.25;65.03
11605;BME280;5858;43.076;25.626;2023-08-01T19:54:19;98359.75;;;25.27;65.72
11605;BME280;5858;43.076;25.626;2023-08-01T19:56:46;98502.63;;;25.94;68.19
11605;BME280;5858;43.076;25.626;2023-08-01T19:59:14;98337.53;;;24.82;67.62
11605;BME280;5858;43.076;25.626;2023-08-01T20:01:41;98468.59;;;25.67;68.83
11605;BME280;5858;43.076;25.626;2023-08-01T20:04:09;98367.66;;;25.15;68.03
11605;BME280;5858;43.076;25.626;2023-08-01T20:06:38;98459.56;;;25.81;67.71
11605;BME280;5858;43.076;25.626;2023-08-01T20:09:06;98503.03;;;26.01;67.95
11605;BME280;5858;43.076;25.626;2023-08-01T20:11:33;98475.50;;;25.79;68.88
11605;BME280;5858;43.076;25.626;2023-08-01T20:14:22;98488.91;;;25.94;68.42
11605;BME280;5858;43.076;25.626;2023-08-01T20:20:04;98500.78;;;25.76;70.78
11605;BME280;5858;43.076;25.626;2023-08-01T20:22:46;98342.38;;;24.71;70.71
11605;BME280;5858;43.076;25.626;2023-08-01T20:25:17;98344.72;;;24.78;71.01
11605;BME280;5858;43.076;25.626;2023-08-01T20:28:13;98351.28;;;24.77;72.40
11605;BME280;5858;43.076;25.626;2023-08-01T20:31:13;98304.50;;;24.27;73.21
11605;BME280;5858;43.076;25.626;2023-08-01T20:33:42;98465.63;;;25.18;73.29
11605;BME280;5858;43.076;25.626;2023-08-01T20:36:21;98338.31;;;24.50;72.68
11605;BME280;5858;43.076;25.626;2023-08-01T20:38:50;98310.84;;;24.23;72.54
11605;BME280;5858;43.076;25.626;2023-08-01T20:41:34;98391.84;;;24.56;72.47
11605;BME280;5858;43.076;25.626;2023-08-01T20:44:06;98463.31;;;25.06;73.05